createdAt,value
2019-02-22T00:00:25.163Z,39.40
2019-02-22T00:02:52.644Z,37.95
2019-02-22T00:05:20.089Z,39.30
2019-02-22T00:07:47.553Z,39.77
2019-02-22T00:10:15.051Z,37.80
2019-02-22T00:12:42.513Z,41.77
2019-02-22T00:15:09.965Z,37.63
2019-02-22T00:17:37.419Z,40.27
2019-02-22T00:20:04.872Z,40.07
2019-02-22T00:22:32.356Z,37.87
2019-02-22T00:24:59.802Z,40.07
2019-02-22T00:27:27.264Z,39.30
2019-02-22T00:29:54.729Z,39.17
2019-02-22T00:32:22.206Z,38.35
2019-02-22T00:34:49.787Z,42.17
2019-02-22T00:37:17.166Z,42.77
2019-02-22T00:39:45.551Z,36.57
2019-02-22T00:42:13.007Z,38.13
2019-02-22T00:44:40.450Z,35.70
2019-02-22T00:47:07.918Z,39.30
2019-02-22T00:49:35.397Z,39.77
2019-02-22T00:52:02.875Z,36.47
2019-02-22T00:54:30.343Z,39.33
2019-02-22T00:56:57.763Z,38.38
2019-02-22T00:59:25.264Z,36.27
2019-02-22T01:01:52.714Z,36.55
2019-02-22T01:04:20.172Z,35.35
2019-02-22T01:06:47.602Z,37.80
2019-02-22T01:09:16.113Z,37.60
2019-02-22T01:11:43.592Z,37.60
2019-02-22T01:14:11.046Z,37.47
2019-02-22T01:16:38.526Z,35.73
2019-02-22T01:19:05.986Z,33.33
2019-02-22T01:21:33.454Z,34.83
2019-02-22T01:24:00.922Z,37.20
2019-02-22T01:26:28.406Z,35.57
2019-02-22T01:28:55.840Z,35.05
2019-02-22T01:31:23.308Z,37.03
2019-02-22T01:33:50.768Z,35.97
2019-02-22T01:36:18.213Z,34.50
2019-02-22T01:38:46.637Z,36.65
2019-02-22T01:41:14.090Z,34.27
2019-02-22T01:43:41.549Z,33.57
2019-02-22T01:46:09.027Z,31.93
2019-02-22T01:48:36.493Z,32.60
2019-02-22T01:51:04.004Z,33.80
2019-02-22T01:53:32.003Z,32.80
2019-02-22T01:55:59.509Z,32.03
2019-02-22T01:58:27.002Z,32.30
2019-02-22T02:00:54.509Z,32.15
2019-02-22T02:03:22.008Z,33.43
2019-02-22T02:05:49.593Z,35.53
2019-02-22T02:08:17.191Z,33.70
2019-02-22T02:10:53.909Z,34.33
2019-02-22T02:13:12.476Z,33.80
2019-02-22T02:15:42.546Z,33.03
2019-02-22T02:18:10.557Z,32.23
2019-02-22T02:20:38.135Z,34.77
2019-02-22T02:23:05.652Z,34.47
2019-02-22T02:25:33.142Z,34.15
2019-02-22T02:28:00.576Z,37.70
2019-02-22T02:30:28.276Z,36.30
2019-02-22T02:32:55.878Z,34.43
2019-02-22T02:35:24.361Z,35.40
2019-02-22T02:37:51.839Z,34.90
2019-02-22T02:40:19.446Z,38.20
2019-02-22T02:42:47.876Z,38.83
2019-02-22T02:45:15.354Z,34.43
2019-02-22T02:47:42.836Z,38.67
2019-02-22T02:50:10.344Z,35.37
2019-02-22T02:52:37.890Z,37.60
2019-02-22T02:55:05.333Z,35.80
2019-02-22T02:57:32.779Z,35.33
2019-02-22T03:00:00.485Z,45.67
2019-02-22T03:02:27.789Z,40.10
2019-02-22T03:04:55.280Z,39.90
2019-02-22T03:07:28.082Z,36.07
2019-02-22T03:09:55.567Z,37.33
2019-02-22T03:12:23.022Z,33.08
2019-02-22T03:14:50.511Z,34.50
2019-02-22T03:17:18.563Z,36.53
2019-02-22T03:19:46.049Z,37.97
2019-02-22T03:22:13.512Z,35.70
2019-02-22T03:24:40.982Z,38.83
2019-02-22T03:27:08.449Z,35.78
2019-02-22T03:29:35.961Z,34.53
2019-02-22T03:32:03.442Z,34.15
2019-02-22T03:34:30.945Z,34.45
2019-02-22T03:36:58.484Z,36.10
2019-02-22T03:39:25.950Z,33.83
2019-02-22T03:41:54.274Z,36.47
2019-02-22T03:44:21.741Z,33.37
2019-02-22T03:46:49.220Z,36.73
2019-02-22T03:49:16.751Z,36.23
2019-02-22T03:51:44.217Z,37.17
2019-02-22T03:54:11.700Z,37.10
2019-02-22T03:56:39.166Z,34.60
2019-02-22T03:59:06.676Z,36.13
2019-02-22T04:01:34.135Z,38.93
2019-02-22T04:04:01.630Z,36.70
2019-02-22T04:06:29.148Z,38.60
2019-02-22T04:08:56.601Z,35.40
2019-02-22T04:11:24.737Z,40.70
2019-02-22T04:13:52.264Z,36.87
2019-02-22T04:16:19.737Z,36.93
2019-02-22T04:18:47.275Z,36.00
2019-02-22T04:21:14.732Z,32.95
2019-02-22T04:23:42.201Z,32.40
2019-02-22T04:26:09.702Z,32.67
2019-02-22T04:28:37.179Z,27.33
2019-02-22T04:31:04.663Z,26.50
2019-02-22T04:33:32.168Z,25.52
2019-02-22T04:35:59.627Z,25.42
2019-02-22T04:38:27.082Z,23.27
2019-02-22T04:40:55.318Z,23.70
2019-02-22T04:43:22.785Z,23.33
2019-02-22T04:45:50.313Z,23.27
2019-02-22T04:48:17.777Z,23.90
2019-02-22T04:50:45.290Z,22.13
2019-02-22T04:53:12.794Z,22.47
2019-02-22T04:55:40.278Z,22.13
2019-02-22T04:58:07.739Z,21.70
2019-02-22T05:00:35.227Z,21.73
2019-02-22T05:03:02.703Z,20.60
2019-02-22T05:05:30.223Z,19.62
2019-02-22T05:07:57.704Z,19.67
2019-02-22T05:10:25.860Z,20.17
2019-02-22T05:12:53.455Z,20.63
2019-02-22T05:15:20.861Z,19.77
2019-02-22T05:17:48.335Z,19.37
2019-02-22T05:20:15.803Z,19.63
2019-02-22T05:22:43.334Z,18.93
2019-02-22T05:25:10.839Z,19.70
2019-02-22T05:27:38.328Z,19.27
2019-02-22T05:30:05.804Z,18.23
2019-02-22T05:32:33.272Z,17.35
2019-02-22T05:35:00.770Z,18.17
2019-02-22T05:37:28.271Z,16.57
2019-02-22T05:39:56.589Z,15.77
2019-02-22T05:42:24.091Z,16.77
2019-02-22T05:44:51.600Z,16.13
2019-02-22T05:47:19.066Z,16.77
2019-02-22T05:49:46.597Z,16.77
2019-02-22T05:52:14.071Z,16.97
2019-02-22T05:54:41.581Z,17.98
2019-02-22T05:57:09.077Z,17.25
2019-02-22T05:59:36.522Z,17.27
2019-02-22T06:02:04.010Z,17.87
2019-02-22T06:04:31.493Z,17.23
2019-02-22T06:06:58.961Z,15.90
2019-02-22T06:09:27.333Z,16.67
2019-02-22T06:11:54.835Z,16.17
2019-02-22T06:14:22.313Z,17.30
2019-02-22T06:16:49.817Z,16.93
2019-02-22T06:19:17.273Z,16.17
2019-02-22T06:21:44.760Z,16.60
2019-02-22T06:24:12.219Z,16.57
2019-02-22T06:26:39.700Z,16.50
2019-02-22T06:29:07.157Z,16.73
2019-02-22T06:31:34.648Z,17.07
2019-02-22T06:34:02.117Z,16.47
2019-02-22T06:36:29.608Z,17.63
2019-02-22T06:38:57.739Z,17.90
2019-02-22T06:41:25.210Z,18.30
2019-02-22T06:43:52.736Z,17.75
2019-02-22T06:46:20.571Z,17.70
2019-02-22T06:48:48.062Z,17.73
2019-02-22T06:51:15.546Z,17.23
2019-02-22T06:53:43.034Z,18.03
2019-02-22T06:56:10.505Z,18.45
2019-02-22T06:58:38.875Z,17.87
2019-02-22T07:01:06.465Z,19.05
2019-02-22T07:03:33.955Z,18.93
2019-02-22T07:06:01.442Z,18.57
2019-02-22T07:08:28.901Z,18.13
2019-02-22T07:10:59.930Z,19.40
2019-02-22T07:13:27.417Z,18.67
2019-02-22T07:15:54.939Z,20.60
2019-02-22T07:18:22.426Z,19.60
2019-02-22T07:20:49.964Z,19.87
2019-02-22T07:23:17.492Z,18.97
2019-02-22T07:25:44.974Z,19.43
2019-02-22T07:28:12.448Z,19.87
2019-02-22T07:30:39.960Z,19.87
2019-02-22T07:33:07.434Z,20.10
2019-02-22T07:35:34.900Z,19.10
2019-02-22T07:38:02.384Z,17.80
2019-02-22T07:40:29.855Z,19.12
2019-02-22T07:43:07.585Z,20.63
2019-02-22T07:45:24.923Z,20.73
2019-02-22T07:47:52.465Z,19.98
2019-02-22T07:50:19.975Z,19.90
2019-02-22T07:52:47.462Z,18.30
2019-02-22T07:55:14.945Z,18.87
2019-02-22T07:57:42.426Z,18.40
2019-02-22T08:00:12.262Z,18.25
2019-02-22T08:02:39.727Z,18.58
2019-02-22T08:05:09.134Z,17.67
2019-02-22T08:07:36.056Z,17.15
2019-02-22T08:10:03.561Z,17.40
2019-02-22T08:12:31.087Z,17.03
2019-02-22T08:14:58.685Z,17.90
2019-02-22T08:17:26.137Z,17.98
2019-02-22T08:19:53.626Z,17.97
2019-02-22T08:22:21.114Z,17.43
2019-02-22T08:24:48.591Z,17.33
2019-02-22T08:27:16.065Z,17.60
2019-02-22T08:29:43.575Z,17.30
2019-02-22T08:32:11.069Z,16.37
2019-02-22T08:34:38.576Z,17.40
2019-02-22T08:37:08.041Z,16.73
2019-02-22T08:39:36.445Z,15.53
2019-02-22T08:42:03.956Z,15.40
2019-02-22T08:44:31.456Z,16.37
2019-02-22T08:46:58.912Z,16.23
2019-02-22T08:49:26.417Z,17.37
2019-02-22T08:51:53.914Z,16.43
2019-02-22T08:54:21.383Z,16.27
2019-02-22T08:56:49.058Z,16.10
2019-02-22T08:59:16.363Z,16.30
2019-02-22T09:01:43.845Z,16.15
2019-02-22T09:04:11.303Z,17.80
2019-02-22T09:06:38.814Z,19.07
2019-02-22T09:09:06.328Z,19.63
2019-02-22T09:11:33.792Z,18.50
2019-02-22T09:14:01.311Z,20.93
2019-02-22T09:16:28.772Z,20.07
2019-02-22T09:18:56.286Z,20.10
2019-02-22T09:21:23.757Z,20.27
2019-02-22T09:23:51.239Z,18.95
2019-02-22T09:26:18.765Z,15.32
2019-02-22T09:28:46.267Z,15.33
2019-02-22T09:31:13.771Z,15.95
2019-02-22T09:33:41.248Z,15.07
2019-02-22T09:36:08.765Z,14.23
2019-02-22T09:38:36.277Z,13.93
2019-02-22T09:41:03.815Z,11.10
2019-02-22T09:43:31.756Z,11.73
2019-02-22T09:45:59.225Z,12.50
2019-02-22T09:48:26.762Z,12.80
2019-02-22T09:50:54.238Z,12.70
2019-02-22T09:53:21.726Z,13.13
2019-02-22T09:55:49.391Z,13.50
2019-02-22T09:58:16.910Z,11.27
2019-02-22T10:00:44.413Z,10.90
2019-02-22T10:03:11.945Z,10.30
2019-02-22T10:05:39.448Z,11.13
2019-02-22T10:08:06.967Z,10.94
2019-02-22T10:10:34.506Z,12.00
2019-02-22T10:13:02.301Z,8.52
2019-02-22T10:15:29.813Z,9.27
2019-02-22T10:17:57.338Z,8.53
2019-02-22T10:20:26.321Z,11.23
2019-02-22T10:22:53.967Z,10.50
2019-02-22T10:25:21.671Z,11.80
2019-02-22T10:27:49.127Z,10.40
2019-02-22T10:30:16.634Z,10.65
2019-02-22T10:32:44.239Z,10.53
2019-02-22T10:35:11.728Z,10.07
2019-02-22T10:37:39.362Z,10.25
2019-02-22T10:40:06.903Z,10.33
2019-02-22T10:42:36.027Z,9.93
2019-02-22T10:45:03.557Z,8.63
2019-02-22T10:47:31.060Z,10.60
2019-02-22T10:49:58.568Z,10.90
2019-02-22T10:52:26.075Z,9.73
2019-02-22T10:54:54.318Z,9.23
2019-02-22T10:57:21.921Z,9.10
2019-02-22T10:59:49.647Z,8.93
2019-02-22T11:02:17.120Z,8.70
2019-02-22T11:04:44.590Z,8.23
2019-02-22T11:07:12.130Z,8.67
2019-02-22T11:09:39.689Z,9.43
2019-02-22T11:12:07.342Z,8.80
2019-02-22T11:14:34.881Z,8.33
2019-02-22T11:17:02.620Z,7.95
2019-02-22T11:19:30.164Z,8.03
2019-02-22T11:21:57.725Z,7.90
2019-02-22T11:24:25.212Z,8.30
2019-02-22T11:26:52.731Z,8.53
2019-02-22T11:29:20.318Z,8.47
2019-02-22T11:31:47.854Z,7.70
2019-02-22T11:34:15.405Z,7.90
2019-02-22T11:36:42.885Z,8.20
2019-02-22T11:39:10.636Z,7.07
2019-02-22T11:41:38.282Z,7.13
2019-02-22T11:44:09.507Z,7.50
2019-02-22T11:46:37.346Z,6.25
2019-02-22T11:49:04.984Z,6.63
2019-02-22T11:51:32.648Z,7.40
2019-02-22T11:54:00.331Z,9.10
2019-02-22T11:56:27.819Z,8.50
2019-02-22T11:58:55.336Z,8.50
2019-02-22T12:01:22.884Z,8.93
2019-02-22T12:03:50.482Z,10.10
2019-02-22T12:06:18.046Z,9.75
2019-02-22T12:08:45.787Z,11.87
2019-02-22T12:11:13.323Z,13.70
2019-02-22T12:13:41.344Z,11.80
2019-02-22T12:16:08.837Z,13.55
2019-02-22T12:18:36.677Z,15.07
2019-02-22T12:21:05.128Z,15.82
2019-02-22T12:23:32.703Z,16.50
2019-02-22T12:26:00.251Z,16.37
2019-02-22T12:28:43.530Z,16.67
2019-02-22T12:31:11.169Z,15.67
2019-02-22T12:33:38.681Z,15.37
2019-02-22T12:36:06.187Z,15.67
2019-02-22T12:38:33.713Z,13.10
2019-02-22T12:41:03.060Z,14.23
2019-02-22T12:43:30.545Z,14.37
2019-02-22T12:45:58.092Z,14.67
2019-02-22T12:48:25.544Z,13.97
2019-02-22T12:50:53.012Z,14.18
2019-02-22T12:53:20.519Z,12.88
2019-02-22T12:55:47.976Z,13.67
2019-02-22T12:58:15.873Z,12.37
2019-02-22T13:00:43.348Z,11.60
2019-02-22T13:03:10.842Z,10.63
2019-02-22T13:05:38.310Z,10.70
2019-02-22T13:08:05.818Z,9.47
2019-02-22T13:10:33.331Z,7.43
2019-02-22T13:13:00.868Z,6.70
2019-02-22T13:15:28.394Z,7.32
2019-02-22T13:17:55.898Z,7.53
2019-02-22T13:20:23.369Z,7.50
2019-02-22T13:22:50.848Z,7.60
2019-02-22T13:25:18.334Z,7.80
2019-02-22T13:27:46.403Z,8.33
2019-02-22T13:30:13.840Z,8.50
2019-02-22T13:32:41.300Z,8.07
2019-02-22T13:35:10.985Z,8.03
2019-02-22T13:37:37.300Z,8.27
2019-02-22T13:40:04.863Z,8.13
2019-02-22T13:42:32.345Z,8.80
2019-02-22T13:44:59.870Z,9.15
2019-02-22T13:47:27.360Z,8.40
2019-02-22T13:49:54.847Z,8.32
2019-02-22T13:52:22.304Z,8.10
2019-02-22T13:54:49.756Z,8.57
2019-02-22T13:57:17.232Z,7.70
2019-02-22T13:59:44.677Z,8.00
2019-02-22T14:02:14.032Z,7.80
2019-02-22T14:04:41.590Z,7.83
2019-02-22T14:07:09.069Z,8.30
2019-02-22T14:09:36.566Z,7.37
2019-02-22T14:12:04.066Z,8.07
2019-02-22T14:14:31.521Z,8.43
2019-02-22T14:16:58.995Z,7.67
2019-02-22T14:19:26.471Z,7.53
2019-02-22T14:21:53.923Z,7.72
2019-02-22T14:24:21.407Z,7.83
2019-02-22T14:26:48.880Z,8.00
2019-02-22T14:29:16.358Z,7.83
2019-02-22T14:31:43.862Z,8.43
2019-02-22T14:34:11.313Z,9.33
2019-02-22T14:36:38.825Z,9.13
2019-02-22T14:39:06.390Z,10.67
2019-02-22T14:41:33.810Z,10.02
2019-02-22T14:44:01.257Z,11.00
2019-02-22T14:46:28.757Z,10.90
2019-02-22T14:48:56.184Z,12.40
2019-02-22T14:51:23.669Z,11.47
2019-02-22T14:53:51.166Z,11.73
2019-02-22T14:56:18.654Z,11.13
2019-02-22T14:58:46.175Z,10.97
2019-02-22T15:01:13.648Z,9.83
2019-02-22T15:03:41.287Z,10.60
2019-02-22T15:06:08.737Z,9.23
2019-02-22T15:08:36.240Z,11.13
2019-02-22T15:11:03.814Z,10.53
2019-02-22T15:13:31.312Z,10.10
2019-02-22T15:16:03.668Z,10.07
2019-02-22T15:18:28.141Z,11.13
2019-02-22T15:20:55.598Z,11.85
2019-02-22T15:23:23.067Z,11.00
2019-02-22T15:25:50.511Z,11.10
2019-02-22T15:28:18.582Z,11.07
2019-02-22T15:30:46.443Z,11.43
2019-02-22T15:33:13.918Z,9.23
2019-02-22T15:35:41.458Z,11.43
2019-02-22T15:38:10.097Z,11.00
2019-02-22T15:40:39.085Z,10.90
2019-02-22T15:43:03.935Z,9.73
2019-02-22T15:45:31.490Z,10.73
2019-02-22T15:47:58.955Z,9.97
2019-02-22T15:50:26.454Z,8.13
2019-02-22T15:52:53.928Z,7.12
2019-02-22T15:55:21.359Z,7.53
2019-02-22T15:57:49.226Z,7.50
2019-02-22T16:00:23.004Z,8.20
2019-02-22T16:02:50.439Z,8.43
2019-02-22T16:05:17.972Z,8.90
2019-02-22T16:07:45.437Z,8.10
2019-02-22T16:10:13.189Z,6.87
2019-02-22T16:12:40.635Z,7.07
2019-02-22T16:15:08.110Z,7.37
2019-02-22T16:17:35.589Z,7.43
2019-02-22T16:20:03.054Z,7.30
2019-02-22T16:22:30.510Z,7.40
2019-02-22T16:24:57.962Z,7.68
2019-02-22T16:27:25.460Z,8.70
2019-02-22T16:29:52.989Z,8.60
2019-02-22T16:32:20.480Z,7.87
2019-02-22T16:34:47.919Z,9.20
2019-02-22T16:37:15.414Z,9.10
2019-02-22T16:39:42.856Z,9.67
2019-02-22T16:42:10.324Z,9.00
2019-02-22T16:44:37.771Z,9.20
2019-02-22T16:47:05.244Z,10.17
2019-02-22T16:49:32.762Z,9.73
2019-02-22T16:52:00.189Z,9.40
2019-02-22T16:54:27.669Z,9.20
2019-02-22T16:56:55.144Z,9.50
2019-02-22T16:59:22.612Z,8.80
2019-02-22T17:01:50.467Z,9.43
2019-02-22T17:04:18.827Z,9.23
2019-02-22T17:06:45.424Z,9.55
2019-02-22T17:09:12.902Z,10.47
2019-02-22T17:11:40.810Z,10.03
2019-02-22T17:14:08.343Z,10.85
2019-02-22T17:16:45.593Z,10.53
2019-02-22T17:19:03.438Z,11.40
2019-02-22T17:21:30.911Z,11.33
2019-02-22T17:23:58.417Z,11.37
2019-02-22T17:26:25.949Z,11.85
2019-02-22T17:28:54.335Z,11.27
2019-02-22T17:31:21.816Z,13.23
2019-02-22T17:33:49.416Z,12.60
2019-02-22T17:36:26.402Z,12.60
2019-02-22T17:38:44.340Z,13.83
2019-02-22T17:41:13.131Z,13.00
2019-02-22T17:43:40.666Z,12.03
2019-02-22T17:46:08.155Z,12.33
2019-02-22T17:48:35.863Z,13.10
2019-02-22T17:51:03.381Z,12.82
2019-02-22T17:53:30.862Z,13.05
2019-02-22T17:55:58.360Z,12.53
2019-02-22T17:58:25.899Z,12.55
2019-02-22T18:00:53.388Z,13.30
2019-02-22T18:03:22.474Z,12.73
2019-02-22T18:05:50.064Z,13.47
2019-02-22T18:08:17.520Z,13.93
2019-02-22T18:10:45.017Z,12.93
2019-02-22T18:13:12.526Z,12.80
2019-02-22T18:15:39.989Z,14.70
2019-02-22T18:18:07.487Z,13.53
2019-02-22T18:20:34.976Z,15.50
2019-02-22T18:23:02.459Z,14.13
2019-02-22T18:25:29.913Z,16.12
2019-02-22T18:27:57.403Z,15.65
2019-02-22T18:30:24.914Z,15.40
2019-02-22T18:32:52.377Z,16.37
2019-02-22T18:35:19.836Z,15.20
2019-02-22T18:37:47.309Z,15.27
2019-02-22T18:40:14.781Z,15.20
2019-02-22T18:42:42.305Z,16.73
2019-02-22T18:45:09.811Z,15.20
2019-02-22T18:47:37.279Z,15.80
2019-02-22T18:50:04.745Z,16.20
2019-02-22T18:52:32.224Z,16.93
2019-02-22T18:54:59.666Z,16.63
2019-02-22T18:57:27.152Z,17.30
2019-02-22T18:59:54.746Z,15.67
2019-02-22T19:02:22.760Z,17.08
2019-02-22T19:04:50.279Z,16.90
2019-02-22T19:07:17.781Z,16.40
2019-02-22T19:09:45.252Z,16.53
2019-02-22T19:12:12.712Z,17.07
2019-02-22T19:14:40.212Z,17.47
2019-02-22T19:17:07.656Z,16.93
2019-02-22T19:19:35.111Z,15.93
2019-02-22T19:22:02.779Z,16.13
2019-02-22T19:24:30.246Z,16.52
2019-02-22T19:26:57.777Z,16.40
2019-02-22T19:29:25.225Z,16.13
2019-02-22T19:31:53.260Z,16.00
2019-02-22T19:34:20.734Z,16.43
2019-02-22T19:36:48.219Z,16.12
2019-02-22T19:39:15.716Z,16.17
2019-02-22T19:41:43.180Z,17.17
2019-02-22T19:44:10.640Z,17.50
2019-02-22T19:46:38.125Z,16.87
2019-02-22T19:49:05.605Z,15.77
2019-02-22T19:51:33.067Z,15.85
2019-02-22T19:54:00.519Z,16.37
2019-02-22T19:56:27.959Z,17.13
2019-02-22T19:58:55.468Z,16.97
2019-02-22T20:01:23.818Z,16.63
2019-02-22T20:03:51.298Z,17.07
2019-02-22T20:06:18.784Z,16.73
2019-02-22T20:08:46.233Z,16.60
2019-02-22T20:11:13.719Z,16.53
2019-02-22T20:13:41.148Z,16.53
2019-02-22T20:16:08.660Z,16.70
2019-02-22T20:18:36.139Z,16.27
2019-02-22T20:21:03.586Z,16.87
2019-02-22T20:23:31.576Z,17.25
2019-02-22T20:25:59.268Z,16.60
2019-02-22T20:28:26.771Z,16.70
2019-02-22T20:30:54.810Z,17.42
2019-02-22T20:33:22.292Z,18.07
2019-02-22T20:35:49.829Z,17.27
2019-02-22T20:38:17.319Z,16.00
2019-02-22T20:40:44.784Z,15.57
2019-02-22T20:43:12.238Z,17.43
2019-02-22T20:45:40.518Z,16.63
2019-02-22T20:48:08.013Z,16.58
2019-02-22T20:50:35.493Z,17.50
2019-02-22T20:53:03.369Z,16.13
2019-02-22T20:55:30.814Z,16.40
2019-02-22T20:57:58.308Z,16.03
2019-02-22T21:00:26.513Z,16.47
2019-02-22T21:02:55.067Z,15.80
2019-02-22T21:05:22.835Z,16.90
2019-02-22T21:07:50.362Z,16.40
2019-02-22T21:10:19.776Z,16.97
2019-02-22T21:12:47.212Z,17.43
2019-02-22T21:15:14.695Z,16.40
2019-02-22T21:17:42.133Z,16.70
2019-02-22T21:20:12.471Z,16.37
2019-02-22T21:22:39.936Z,16.95
2019-02-22T21:25:08.275Z,16.43
2019-02-22T21:27:35.859Z,17.30
2019-02-22T21:30:03.358Z,16.00
2019-02-22T21:32:30.828Z,16.97
2019-02-22T21:34:58.298Z,16.83
2019-02-22T21:37:25.771Z,16.20
2019-02-22T21:39:53.285Z,17.03
2019-02-22T21:42:21.506Z,18.10
2019-02-22T21:44:49.136Z,17.87
2019-02-22T21:47:16.605Z,17.37
2019-02-22T21:49:44.069Z,16.57
2019-02-22T21:52:11.581Z,16.03
2019-02-22T21:54:39.146Z,17.40
2019-02-22T21:57:06.640Z,15.17
2019-02-22T21:59:34.071Z,16.62
2019-02-22T22:02:01.543Z,16.77
2019-02-22T22:04:29.026Z,16.27
2019-02-22T22:06:56.474Z,17.67
2019-02-22T22:09:23.958Z,16.83
2019-02-22T22:11:51.492Z,16.45
2019-02-22T22:14:18.952Z,17.70
2019-02-22T22:19:20.254Z,16.87
2019-02-22T22:21:47.701Z,16.30
2019-02-22T22:24:15.189Z,16.37
2019-02-22T22:26:42.667Z,17.20
2019-02-22T22:29:10.126Z,15.47
2019-02-22T22:31:37.592Z,16.48
2019-02-22T22:34:05.445Z,15.37
2019-02-22T22:36:32.890Z,15.70
2019-02-22T22:39:00.359Z,17.73
2019-02-22T22:41:27.871Z,15.97
2019-02-22T22:43:55.862Z,14.93
2019-02-22T22:46:23.321Z,15.70
2019-02-22T22:48:50.971Z,15.53
2019-02-22T22:51:18.300Z,15.90
2019-02-22T22:53:45.780Z,15.87
2019-02-22T22:56:13.276Z,15.10
2019-02-22T22:58:40.769Z,15.75
2019-02-22T23:01:08.339Z,14.85
2019-02-22T23:03:35.889Z,15.37
2019-02-22T23:06:03.280Z,17.37
2019-02-22T23:08:30.775Z,16.03
2019-02-22T23:10:58.605Z,15.40
2019-02-22T23:13:26.206Z,15.40
2019-02-22T23:15:53.800Z,15.33
2019-02-22T23:18:21.333Z,15.57
2019-02-22T23:20:48.799Z,15.17
2019-02-22T23:23:16.239Z,15.18
2019-02-22T23:25:43.712Z,16.08
2019-02-22T23:28:11.165Z,15.20
2019-02-22T23:30:38.626Z,14.52
2019-02-22T23:33:06.103Z,16.13
2019-02-22T23:35:33.540Z,15.73
2019-02-22T23:38:01.002Z,18.47
2019-02-22T23:40:28.842Z,17.12
2019-02-22T23:42:56.616Z,15.27
2019-02-22T23:45:24.176Z,15.37
2019-02-22T23:47:51.678Z,15.47
2019-02-22T23:50:19.133Z,15.27
2019-02-22T23:52:46.597Z,15.70
2019-02-22T23:55:14.399Z,15.90
2019-02-22T23:57:43.572Z,15.35
